sensor_id;sensor_type;location;lat;lon;timestamp;pressure;altitude;pressure_sealevel;temperature;humidity
43814;BME280;29669;55.706;37.656;2023-02-19T00:01:46;98452.38;;;-4.71;nan
43814;BME280;29669;55.706;37.656;2023-02-19T00:04:16;98454.91;;;-4.71;nan
43814;BME280;29669;55.706;37.656;2023-02-19T00:06:46;98443.56;;;-4.78;nan
43814;BME280;29669;55.706;37.656;2023-02-19T00:09:15;98443.28;;;-4.73;nan
43814;BME280;29669;55.706;37.656;2023-02-19T00:11:44;98441.53;;;-4.73;nan
43814;BME280;29669;55.706;37.656;2023-02-19T00:14:18;98443.47;;;-4.64;nan
43814;BME280;29669;55.706;37.656;2023-02-19T00:16:47;98447.31;;;-4.58;nan
43814;BME280;29669;55.706;37.656;2023-02-19T00:19:17;98438.31;;;-4.62;nan
43814;BME280;29669;55.706;37.656;2023-02-19T00:21:49;98433.53;;;-4.67;nan
43814;BME280;29669;55.706;37.656;2023-02-19T00:24:17;98429.50;;;-4.69;nan
43814;BME280;29669;55.706;37.656;2023-02-19T00:26:46;98424.44;;;-4.69;nan
43814;BME280;29669;55.706;37.656;2023-02-19T00:29:17;98432.13;;;-4.71;nan
43814;BME280;29669;55.706;37.656;2023-02-19T00:31:45;98431.22;;;-4.70;nan
43814;BME280;29669;55.706;37.656;2023-02-19T00:34:13;98431.13;;;-4.68;nan
43814;BME280;29669;55.706;37.656;2023-02-19T00:36:42;98430.50;;;-4.72;nan
43814;BME280;29669;55.706;37.656;2023-02-19T00:39:13;98422.22;;;-4.74;nan
43814;BME280;29669;55.706;37.656;2023-02-19T00:41:42;98432.34;;;-4.74;nan
43814;BME280;29669;55.706;37.656;2023-02-19T00:44:11;98428.28;;;-4.77;nan
43814;BME280;29669;55.706;37.656;2023-02-19T00:46:42;98426.84;;;-4.81;nan
43814;BME280;29669;55.706;37.656;2023-02-19T00:49:20;98422.22;;;-4.87;nan
43814;BME280;29669;55.706;37.656;2023-02-19T00:51:51;98423.31;;;-4.91;nan
43814;BME280;29669;55.706;37.656;2023-02-19T00:54:19;98425.84;;;-4.91;nan
43814;BME280;29669;55.706;37.656;2023-02-19T00:56:49;98419.25;;;-4.93;nan
43814;BME280;29669;55.706;37.656;2023-02-19T00:59:17;98410.84;;;-4.94;nan
43814;BME280;29669;55.706;37.656;2023-02-19T01:01:45;98406.00;;;-4.97;nan
43814;BME280;29669;55.706;37.656;2023-02-19T01:04:13;98398.13;;;-4.92;nan
43814;BME280;29669;55.706;37.656;2023-02-19T01:06:41;98396.28;;;-4.90;nan
43814;BME280;29669;55.706;37.656;2023-02-19T01:09:09;98395.28;;;-4.88;nan
43814;BME280;29669;55.706;37.656;2023-02-19T01:11:37;98388.69;;;-4.90;nan
43814;BME280;29669;55.706;37.656;2023-02-19T01:14:04;98385.38;;;-4.91;nan
43814;BME280;29669;55.706;37.656;2023-02-19T01:16:32;98382.03;;;-4.91;nan
43814;BME280;29669;55.706;37.656;2023-02-19T01:19:00;98381.03;;;-4.89;nan
43814;BME280;29669;55.706;37.656;2023-02-19T01:21:29;98387.19;;;-4.93;nan
43814;BME280;29669;55.706;37.656;2023-02-19T01:23:58;98385.47;;;-4.92;nan
43814;BME280;29669;55.706;37.656;2023-02-19T01:26:28;98373.00;;;-4.95;nan
43814;BME280;29669;55.706;37.656;2023-02-19T01:28:57;98366.22;;;-4.95;nan
43814;BME280;29669;55.706;37.656;2023-02-19T01:31:25;98364.69;;;-4.97;nan
43814;BME280;29669;55.706;37.656;2023-02-19T01:33:59;98361.47;;;-4.99;nan
43814;BME280;29669;55.706;37.656;2023-02-19T01:36:31;98369.06;;;-4.99;nan
43814;BME280;29669;55.706;37.656;2023-02-19T01:39:00;98364.91;;;-5.00;nan
43814;BME280;29669;55.706;37.656;2023-02-19T01:41:34;98359.16;;;-5.02;nan
43814;BME280;29669;55.706;37.656;2023-02-19T01:45:10;98358.03;;;-4.98;nan
43814;BME280;29669;55.706;37.656;2023-02-19T01:46:55;98358.03;;;-4.98;nan
43814;BME280;29669;55.706;37.656;2023-02-19T01:49:31;98341.22;;;-4.99;nan
43814;BME280;29669;55.706;37.656;2023-02-19T01:52:16;98356.22;;;-4.96;nan
43814;BME280;29669;55.706;37.656;2023-02-19T01:54:46;98353.16;;;-5.01;nan
43814;BME280;29669;55.706;37.656;2023-02-19T01:57:19;98359.84;;;-5.00;nan
43814;BME280;29669;55.706;37.656;2023-02-19T01:59:50;98363.09;;;-4.98;nan
43814;BME280;29669;55.706;37.656;2023-02-19T02:02:22;98352.28;;;-5.00;nan
43814;BME280;29669;55.706;37.656;2023-02-19T02:04:51;98362.28;;;-4.99;nan
43814;BME280;29669;55.706;37.656;2023-02-19T02:07:20;98364.59;;;-4.96;nan
43814;BME280;29669;55.706;37.656;2023-02-19T02:10:06;98358.31;;;-5.03;nan
43814;BME280;29669;55.706;37.656;2023-02-19T02:12:47;98354.19;;;-5.04;nan
43814;BME280;29669;55.706;37.656;2023-02-19T02:15:16;98354.59;;;-5.10;nan
43814;BME280;29669;55.706;37.656;2023-02-19T02:18:04;98362.28;;;-4.99;nan
43814;BME280;29669;55.706;37.656;2023-02-19T02:31:13;98350.94;;;-4.93;nan
43814;BME280;29669;55.706;37.656;2023-02-19T02:34:13;98355.09;;;-4.92;nan
43814;BME280;29669;55.706;37.656;2023-02-19T02:36:42;98354.19;;;-4.91;nan
43814;BME280;29669;55.706;37.656;2023-02-19T02:39:16;98342.47;;;-4.92;nan
43814;BME280;29669;55.706;37.656;2023-02-19T02:41:55;98342.47;;;-4.92;nan
43814;BME280;29669;55.706;37.656;2023-02-19T02:44:47;98338.28;;;-4.93;nan
43814;BME280;29669;55.706;37.656;2023-02-19T02:47:47;98341.66;;;-4.93;nan
43814;BME280;29669;55.706;37.656;2023-02-19T02:50:35;98341.94;;;-4.97;nan
43814;BME280;29669;55.706;37.656;2023-02-19T02:53:13;98322.03;;;-5.02;nan
43814;BME280;29669;55.706;37.656;2023-02-19T02:56:01;98333.84;;;-5.02;nan
43814;BME280;29669;55.706;37.656;2023-02-19T02:58:32;98332.75;;;-4.98;nan
43814;BME280;29669;55.706;37.656;2023-02-19T03:01:07;98333.22;;;-4.93;nan
43814;BME280;29669;55.706;37.656;2023-02-19T03:04:03;98323.22;;;-4.95;nan
43814;BME280;29669;55.706;37.656;2023-02-19T03:06:33;98326.25;;;-5.02;nan
43814;BME280;29669;55.706;37.656;2023-02-19T03:09:09;98319.06;;;-5.08;nan
43814;BME280;29669;55.706;37.656;2023-02-19T03:11:40;98324.84;;;-5.06;nan
43814;BME280;29669;55.706;37.656;2023-02-19T03:14:36;98320.59;;;-5.06;nan
43814;BME280;29669;55.706;37.656;2023-02-19T03:17:30;98317.97;;;-5.04;nan
43814;BME280;29669;55.706;37.656;2023-02-19T03:20:20;98326.44;;;-5.05;nan
43814;BME280;29669;55.706;37.656;2023-02-19T03:22:51;98324.84;;;-5.06;nan
43814;BME280;29669;55.706;37.656;2023-02-19T03:25:30;98329.50;;;-5.00;nan
43814;BME280;29669;55.706;37.656;2023-02-19T03:28:29;98321.81;;;-4.99;nan
43814;BME280;29669;55.706;37.656;2023-02-19T03:31:20;98308.75;;;-5.05;nan
43814;BME280;29669;55.706;37.656;2023-02-19T03:33:53;98311.97;;;-5.03;nan
43814;BME280;29669;55.706;37.656;2023-02-19T03:36:23;98302.38;;;-5.11;nan
43814;BME280;29669;55.706;37.656;2023-02-19T03:39:02;98299.84;;;-5.11;nan
43814;BME280;29669;55.706;37.656;2023-02-19T03:41:34;98301.25;;;-5.07;nan
43814;BME280;29669;55.706;37.656;2023-02-19T03:44:17;98307.84;;;-5.04;nan
43814;BME280;29669;55.706;37.656;2023-02-19T03:52:03;98294.47;;;-4.94;nan
43814;BME280;29669;55.706;37.656;2023-02-19T03:57:46;98296.50;;;-4.99;nan
43814;BME280;29669;55.706;37.656;2023-02-19T04:00:21;98296.09;;;-5.05;nan
43814;BME280;29669;55.706;37.656;2023-02-19T04:03:18;98292.88;;;-5.07;nan
43814;BME280;29669;55.706;37.656;2023-02-19T04:05:50;98289.22;;;-5.03;nan
43814;BME280;29669;55.706;37.656;2023-02-19T04:08:21;98282.56;;;-5.04;nan
43814;BME280;29669;55.706;37.656;2023-02-19T04:10:58;98295.41;;;-5.07;nan
43814;BME280;29669;55.706;37.656;2023-02-19T04:13:46;98284.16;;;-5.03;nan
43814;BME280;29669;55.706;37.656;2023-02-19T04:16:20;98288.44;;;-5.04;nan
43814;BME280;29669;55.706;37.656;2023-02-19T04:18:53;98295.69;;;-4.99;nan
43814;BME280;29669;55.706;37.656;2023-02-19T04:21:23;98289.72;;;-4.98;nan
43814;BME280;29669;55.706;37.656;2023-02-19T04:23:51;98281.94;;;-4.95;nan
43814;BME280;29669;55.706;37.656;2023-02-19T04:26:21;98275.34;;;-4.98;nan
43814;BME280;29669;55.706;37.656;2023-02-19T04:28:49;98275.88;;;-4.93;nan
43814;BME280;29669;55.706;37.656;2023-02-19T04:31:16;98279.09;;;-4.91;nan
43814;BME280;29669;55.706;37.656;2023-02-19T04:33:44;98279.69;;;-4.87;nan
43814;BME280;29669;55.706;37.656;2023-02-19T04:36:12;98277.34;;;-4.90;nan
43814;BME280;29669;55.706;37.656;2023-02-19T04:38:39;98286.38;;;-4.86;nan
43814;BME280;29669;55.706;37.656;2023-02-19T04:41:08;98270.59;;;-4.90;nan
43814;BME280;29669;55.706;37.656;2023-02-19T04:43:36;98279.59;;;-4.86;nan
43814;BME280;29669;55.706;37.656;2023-02-19T04:46:03;98274.53;;;-4.86;nan
43814;BME280;29669;55.706;37.656;2023-02-19T04:48:31;98264.41;;;-4.86;nan
43814;BME280;29669;55.706;37.656;2023-02-19T04:51:04;98274.63;;;-4.87;nan
43814;BME280;29669;55.706;37.656;2023-02-19T04:53:32;98278.38;;;-4.80;nan
43814;BME280;29669;55.706;37.656;2023-02-19T04:56:07;98273.13;;;-4.77;nan
43814;BME280;29669;55.706;37.656;2023-02-19T04:58:35;98280.06;;;-4.81;nan
43814;BME280;29669;55.706;37.656;2023-02-19T05:01:03;98266.94;;;-4.86;nan
43814;BME280;29669;55.706;37.656;2023-02-19T05:03:32;98265.34;;;-4.87;nan
43814;BME280;29669;55.706;37.656;2023-02-19T05:06:05;98249.44;;;-4.89;nan
43814;BME280;29669;55.706;37.656;2023-02-19T05:08:34;98250.94;;;-4.86;nan
43814;BME280;29669;55.706;37.656;2023-02-19T05:11:03;98268.13;;;-4.79;nan
43814;BME280;29669;55.706;37.656;2023-02-19T05:13:32;98260.47;;;-4.77;nan
43814;BME280;29669;55.706;37.656;2023-02-19T05:16:10;98260.66;;;-4.80;nan
43814;BME280;29669;55.706;37.656;2023-02-19T05:18:41;98260.13;;;-4.72;nan
43814;BME280;29669;55.706;37.656;2023-02-19T05:21:09;98263.25;;;-4.69;nan
43814;BME280;29669;55.706;37.656;2023-02-19T05:23:37;98257.19;;;-4.66;nan
43814;BME280;29669;55.706;37.656;2023-02-19T05:26:13;98256.66;;;-4.59;nan
43814;BME280;29669;55.706;37.656;2023-02-19T05:28:44;98251.38;;;-4.56;nan
43814;BME280;29669;55.706;37.656;2023-02-19T05:31:12;98245.00;;;-4.49;nan
43814;BME280;29669;55.706;37.656;2023-02-19T05:33:40;98257.13;;;-4.41;nan
43814;BME280;29669;55.706;37.656;2023-02-19T05:36:11;98253.44;;;-4.37;nan
43814;BME280;29669;55.706;37.656;2023-02-19T05:38:40;98242.28;;;-4.35;nan
43814;BME280;29669;55.706;37.656;2023-02-19T05:41:12;98243.09;;;-4.34;nan
43814;BME280;29669;55.706;37.656;2023-02-19T05:43:41;98242.50;;;-4.38;nan
43814;BME280;29669;55.706;37.656;2023-02-19T05:46:11;98238.16;;;-4.36;nan
43814;BME280;29669;55.706;37.656;2023-02-19T05:48:40;98236.19;;;-4.32;nan
43814;BME280;29669;55.706;37.656;2023-02-19T05:51:12;98242.28;;;-4.35;nan
43814;BME280;29669;55.706;37.656;2023-02-19T05:53:42;98243.91;;;-4.34;nan
43814;BME280;29669;55.706;37.656;2023-02-19T05:58:53;98243.03;;;-4.22;nan
43814;BME280;29669;55.706;37.656;2023-02-19T06:01:23;98242.19;;;-4.10;nan
43814;BME280;29669;55.706;37.656;2023-02-19T06:03:53;98232.03;;;-4.10;nan
43814;BME280;29669;55.706;37.656;2023-02-19T06:06:24;98239.69;;;-3.99;nan
43814;BME280;29669;55.706;37.656;2023-02-19T06:08:53;98238.31;;;-3.92;nan
43814;BME280;29669;55.706;37.656;2023-02-19T06:11:22;98230.94;;;-3.95;nan
43814;BME280;29669;55.706;37.656;2023-02-19T06:13:50;98232.53;;;-3.94;nan
43814;BME280;29669;55.706;37.656;2023-02-19T06:16:18;98232.09;;;-3.88;nan
43814;BME280;29669;55.706;37.656;2023-02-19T06:18:46;98233.44;;;-3.71;nan
43814;BME280;29669;55.706;37.656;2023-02-19T06:21:14;98226.31;;;-3.66;nan
43814;BME280;29669;55.706;37.656;2023-02-19T06:23:43;98236.59;;;-3.56;nan
43814;BME280;29669;55.706;37.656;2023-02-19T06:26:19;98225.75;;;-3.58;nan
43814;BME280;29669;55.706;37.656;2023-02-19T06:28:47;98237.28;;;-3.54;nan
43814;BME280;29669;55.706;37.656;2023-02-19T06:31:16;98228.03;;;-3.55;nan
43814;BME280;29669;55.706;37.656;2023-02-19T06:33:44;98237.03;;;-3.51;nan
43814;BME280;29669;55.706;37.656;2023-02-19T06:36:17;98237.53;;;-3.46;nan
43814;BME280;29669;55.706;37.656;2023-02-19T06:38:45;98221.38;;;-3.45;nan
43814;BME280;29669;55.706;37.656;2023-02-19T06:41:13;98218.41;;;-3.39;nan
43814;BME280;29669;55.706;37.656;2023-02-19T06:43:41;98222.91;;;-3.32;nan
43814;BME280;29669;55.706;37.656;2023-02-19T06:46:10;98219.34;;;-3.18;nan
43814;BME280;29669;55.706;37.656;2023-02-19T06:48:39;98213.56;;;-3.09;nan
43814;BME280;29669;55.706;37.656;2023-02-19T06:51:10;98215.28;;;-3.10;nan
43814;BME280;29669;55.706;37.656;2023-02-19T06:53:38;98212.19;;;-3.13;nan
43814;BME280;29669;55.706;37.656;2023-02-19T06:58:52;98204.69;;;-3.26;nan
43814;BME280;29669;55.706;37.656;2023-02-19T07:01:22;98210.34;;;-3.11;nan
43814;BME280;29669;55.706;37.656;2023-02-19T07:03:50;98208.94;;;-3.04;nan
43814;BME280;29669;55.706;37.656;2023-02-19T07:06:22;98201.22;;;-2.92;nan
43814;BME280;29669;55.706;37.656;2023-02-19T07:08:51;98196.47;;;-2.85;nan
43814;BME280;29669;55.706;37.656;2023-02-19T07:11:19;98200.81;;;-2.76;nan
43814;BME280;29669;55.706;37.656;2023-02-19T07:13:46;98200.72;;;-2.74;nan
43814;BME280;29669;55.706;37.656;2023-02-19T07:16:14;98197.59;;;-2.67;nan
43814;BME280;29669;55.706;37.656;2023-02-19T07:18:44;98192.50;;;-2.56;nan
43814;BME280;29669;55.706;37.656;2023-02-19T07:21:13;98189.47;;;-2.50;nan
43814;BME280;29669;55.706;37.656;2023-02-19T07:23:42;98179.66;;;-2.54;nan
43814;BME280;29669;55.706;37.656;2023-02-19T07:26:12;98188.09;;;-2.54;nan
43814;BME280;29669;55.706;37.656;2023-02-19T07:28:41;98183.09;;;-2.44;nan
43814;BME280;29669;55.706;37.656;2023-02-19T07:31:09;98181.13;;;-2.41;nan
43814;BME280;29669;55.706;37.656;2023-02-19T07:33:37;98185.03;;;-2.37;nan
43814;BME280;29669;55.706;37.656;2023-02-19T07:36:06;98170.28;;;-2.43;nan
43814;BME280;29669;55.706;37.656;2023-02-19T07:38:34;98174.78;;;-2.46;nan
43814;BME280;29669;55.706;37.656;2023-02-19T07:41:03;98159.69;;;-2.59;nan
43814;BME280;29669;55.706;37.656;2023-02-19T07:43:36;98171.22;;;-2.55;nan
43814;BME280;29669;55.706;37.656;2023-02-19T07:46:05;98172.16;;;-2.56;nan
43814;BME280;29669;55.706;37.656;2023-02-19T07:48:38;98169.63;;;-2.56;nan
43814;BME280;29669;55.706;37.656;2023-02-19T07:51:09;98172.47;;;-2.49;nan
43814;BME280;29669;55.706;37.656;2023-02-19T07:53:38;98166.09;;;-2.44;nan
43814;BME280;29669;55.706;37.656;2023-02-19T07:56:06;98172.28;;;-2.26;nan
43814;BME280;29669;55.706;37.656;2023-02-19T07:58:34;98168.19;;;-2.17;nan
43814;BME280;29669;55.706;37.656;2023-02-19T08:01:12;98155.25;;;-2.14;nan
43814;BME280;29669;55.706;37.656;2023-02-19T08:03:41;98142.72;;;-2.06;nan
43814;BME280;29669;55.706;37.656;2023-02-19T08:06:09;98159.66;;;-1.96;nan
43814;BME280;29669;55.706;37.656;2023-02-19T08:08:38;98140.00;;;-1.94;nan
43814;BME280;29669;55.706;37.656;2023-02-19T08:11:06;98141.97;;;-1.76;nan
43814;BME280;29669;55.706;37.656;2023-02-19T08:13:53;98151.53;;;-1.69;nan
43814;BME280;29669;55.706;37.656;2023-02-19T08:16:21;98150.72;;;-1.69;nan
43814;BME280;29669;55.706;37.656;2023-02-19T08:19:07;98148.59;;;-1.64;nan
43814;BME280;29669;55.706;37.656;2023-02-19T08:21:34;98147.59;;;-1.52;nan
43814;BME280;29669;55.706;37.656;2023-02-19T08:24:02;98138.59;;;-1.56;nan
43814;BME280;29669;55.706;37.656;2023-02-19T08:26:31;98154.81;;;-1.57;nan
43814;BME280;29669;55.706;37.656;2023-02-19T08:28:59;98144.09;;;-1.51;nan
43814;BME280;29669;55.706;37.656;2023-02-19T08:31:27;98138.81;;;-1.39;nan
43814;BME280;29669;55.706;37.656;2023-02-19T08:33:54;98140.28;;;-1.36;nan
43814;BME280;29669;55.706;37.656;2023-02-19T08:36:22;98152.53;;;-1.21;nan
43814;BME280;29669;55.706;37.656;2023-02-19T08:38:49;98142.94;;;-0.98;nan
43814;BME280;29669;55.706;37.656;2023-02-19T08:41:17;98139.22;;;-0.94;nan
43814;BME280;29669;55.706;37.656;2023-02-19T08:43:44;98144.69;;;-1.08;nan
43814;BME280;29669;55.706;37.656;2023-02-19T08:46:12;98135.94;;;-1.15;nan
43814;BME280;29669;55.706;37.656;2023-02-19T08:48:40;98145.56;;;-1.19;nan
43814;BME280;29669;55.706;37.656;2023-02-19T08:51:09;98138.88;;;-1.20;nan
43814;BME280;29669;55.706;37.656;2023-02-19T08:53:39;98135.13;;;-1.25;nan
43814;BME280;29669;55.706;37.656;2023-02-19T08:56:09;98131.91;;;-1.27;nan
43814;BME280;29669;55.706;37.656;2023-02-19T08:58:37;98129.22;;;-1.26;nan
43814;BME280;29669;55.706;37.656;2023-02-19T09:01:10;98128.66;;;-1.29;nan
43814;BME280;29669;55.706;37.656;2023-02-19T09:03:39;98130.09;;;-1.36;nan
43814;BME280;29669;55.706;37.656;2023-02-19T09:06:12;98119.22;;;-1.48;nan
43814;BME280;29669;55.706;37.656;2023-02-19T09:08:40;98125.66;;;-1.44;nan
43814;BME280;29669;55.706;37.656;2023-02-19T09:11:08;98112.56;;;-1.39;nan
43814;BME280;29669;55.706;37.656;2023-02-19T09:13:36;98125.97;;;-1.37;nan
43814;BME280;29669;55.706;37.656;2023-02-19T09:16:04;98112.59;;;-1.30;nan
43814;BME280;29669;55.706;37.656;2023-02-19T09:18:32;98115.78;;;-1.37;nan
43814;BME280;29669;55.706;37.656;2023-02-19T09:21:00;98110.00;;;-1.39;nan
43814;BME280;29669;55.706;37.656;2023-02-19T09:23:29;98112.16;;;-1.44;nan
43814;BME280;29669;55.706;37.656;2023-02-19T09:25:59;98108.06;;;-1.56;nan
43814;BME280;29669;55.706;37.656;2023-02-19T09:28:27;98100.25;;;-1.64;nan
43814;BME280;29669;55.706;37.656;2023-02-19T09:30:55;98095.75;;;-1.61;nan
43814;BME280;29669;55.706;37.656;2023-02-19T09:33:23;98098.56;;;-1.54;nan
43814;BME280;29669;55.706;37.656;2023-02-19T09:35:51;98103.16;;;-1.48;nan
43814;BME280;29669;55.706;37.656;2023-02-19T09:38:19;98090.03;;;-1.53;nan
43814;BME280;29669;55.706;37.656;2023-02-19T09:40:47;98083.31;;;-1.54;nan
43814;BME280;29669;55.706;37.656;2023-02-19T09:43:20;98086.13;;;-1.57;nan
43814;BME280;29669;55.706;37.656;2023-02-19T09:46:00;98089.47;;;-1.47;nan
43814;BME280;29669;55.706;37.656;2023-02-19T09:48:29;98078.78;;;-1.41;nan
43814;BME280;29669;55.706;37.656;2023-02-19T09:50:58;98090.59;;;-1.40;nan
43814;BME280;29669;55.706;37.656;2023-02-19T09:53:29;98089.28;;;-1.35;nan
43814;BME280;29669;55.706;37.656;2023-02-19T09:55:58;98079.13;;;-1.25;nan
43814;BME280;29669;55.706;37.656;2023-02-19T09:58:34;98082.34;;;-1.04;nan
43814;BME280;29669;55.706;37.656;2023-02-19T10:01:03;98078.50;;;-1.08;nan
43814;BME280;29669;55.706;37.656;2023-02-19T10:03:37;98076.50;;;-1.05;nan
43814;BME280;29669;55.706;37.656;2023-02-19T10:06:13;98078.34;;;-1.07;nan
43814;BME280;29669;55.706;37.656;2023-02-19T10:08:46;98074.06;;;-1.06;nan
43814;BME280;29669;55.706;37.656;2023-02-19T10:11:17;98064.94;;;-1.09;nan
43814;BME280;29669;55.706;37.656;2023-02-19T10:16:32;98071.63;;;-1.08;nan
43814;BME280;29669;55.706;37.656;2023-02-19T10:19:00;98075.13;;;-1.09;nan
43814;BME280;29669;55.706;37.656;2023-02-19T10:21:27;98071.63;;;-1.17;nan
43814;BME280;29669;55.706;37.656;2023-02-19T10:23:59;98071.63;;;-1.17;nan
43814;BME280;29669;55.706;37.656;2023-02-19T10:26:29;98058.38;;;-1.11;nan
43814;BME280;29669;55.706;37.656;2023-02-19T10:29:03;98068.19;;;-0.87;nan
43814;BME280;29669;55.706;37.656;2023-02-19T10:31:32;98062.59;;;-0.81;nan
43814;BME280;29669;55.706;37.656;2023-02-19T10:34:00;98057.34;;;-0.70;nan
43814;BME280;29669;55.706;37.656;2023-02-19T10:36:31;98071.53;;;-0.58;nan
43814;BME280;29669;55.706;37.656;2023-02-19T10:39:02;98062.69;;;-0.45;nan
43814;BME280;29669;55.706;37.656;2023-02-19T10:41:33;98065.50;;;-0.29;nan
43814;BME280;29669;55.706;37.656;2023-02-19T10:44:13;98068.53;;;-0.06;nan
43814;BME280;29669;55.706;37.656;2023-02-19T10:46:45;98068.13;;;-0.02;nan
43814;BME280;29669;55.706;37.656;2023-02-19T10:49:23;98049.72;;;0.05;nan
43814;BME280;29669;55.706;37.656;2023-02-19T10:54:52;98051.72;;;0.11;nan
43814;BME280;29669;55.706;37.656;2023-02-19T10:57:27;98053.06;;;0.05;nan
43814;BME280;29669;55.706;37.656;2023-02-19T11:02:40;98052.38;;;0.13;nan
43814;BME280;29669;55.706;37.656;2023-02-19T11:07:43;98050.59;;;0.23;nan
43814;BME280;29669;55.706;37.656;2023-02-19T11:12:55;98044.50;;;0.33;nan
43814;BME280;29669;55.706;37.656;2023-02-19T11:15:31;98049.78;;;0.49;nan
43814;BME280;29669;55.706;37.656;2023-02-19T11:20:58;98046.25;;;0.87;nan
43814;BME280;29669;55.706;37.656;2023-02-19T11:23:27;98050.19;;;0.99;nan
43814;BME280;29669;55.706;37.656;2023-02-19T11:25:58;98038.16;;;1.09;nan
43814;BME280;29669;55.706;37.656;2023-02-19T11:28:32;98041.47;;;1.19;nan
43814;BME280;29669;55.706;37.656;2023-02-19T11:31:27;98039.25;;;1.24;nan
43814;BME280;29669;55.706;37.656;2023-02-19T11:36:35;98035.50;;;0.83;nan
43814;BME280;29669;55.706;37.656;2023-02-19T11:39:30;98038.13;;;0.47;nan
43814;BME280;29669;55.706;37.656;2023-02-19T11:48:08;98031.19;;;0.03;nan
43814;BME280;29669;55.706;37.656;2023-02-19T11:56:36;98035.81;;;-0.11;nan
43814;BME280;29669;55.706;37.656;2023-02-19T11:59:16;98044.13;;;-0.18;nan
43814;BME280;29669;55.706;37.656;2023-02-19T12:07:45;98029.84;;;-0.38;nan
43814;BME280;29669;55.706;37.656;2023-02-19T12:15:53;98030.38;;;-0.54;nan
43814;BME280;29669;55.706;37.656;2023-02-19T12:18:31;98026.50;;;-0.58;nan
43814;BME280;29669;55.706;37.656;2023-02-19T12:21:17;98028.22;;;-0.58;nan
43814;BME280;29669;55.706;37.656;2023-02-19T12:29:50;98026.38;;;-0.85;nan
43814;BME280;29669;55.706;37.656;2023-02-19T12:32:41;98031.72;;;-0.98;nan
43814;BME280;29669;55.706;37.656;2023-02-19T12:35:30;98026.91;;;-1.01;nan
43814;BME280;29669;55.706;37.656;2023-02-19T12:38:30;98031.44;;;-1.04;nan
43814;BME280;29669;55.706;37.656;2023-02-19T12:41:24;98033.22;;;-1.05;nan
43814;BME280;29669;55.706;37.656;2023-02-19T12:46:44;98028.66;;;-0.91;nan
43814;BME280;29669;55.706;37.656;2023-02-19T12:49:27;98023.94;;;-0.86;nan
43814;BME280;29669;55.706;37.656;2023-02-19T12:52:02;98027.03;;;-0.83;nan
43814;BME280;29669;55.706;37.656;2023-02-19T12:54:34;98043.78;;;-0.90;nan
43814;BME280;29669;55.706;37.656;2023-02-19T13:00:06;98018.84;;;-1.06;nan
43814;BME280;29669;55.706;37.656;2023-02-19T13:02:52;98043.25;;;-1.03;nan
43814;BME280;29669;55.706;37.656;2023-02-19T13:05:39;98038.97;;;-1.12;nan
43814;BME280;29669;55.706;37.656;2023-02-19T13:08:15;98043.25;;;-1.13;nan
43814;BME280;29669;55.706;37.656;2023-02-19T13:10:59;98042.69;;;-1.16;nan
43814;BME280;29669;55.706;37.656;2023-02-19T13:13:41;98030.63;;;-1.24;nan
43814;BME280;29669;55.706;37.656;2023-02-19T13:16:15;98027.66;;;-1.38;nan
43814;BME280;29669;55.706;37.656;2023-02-19T13:18:57;98038.19;;;-1.52;nan
43814;BME280;29669;55.706;37.656;2023-02-19T13:21:35;98037.34;;;-1.62;nan
43814;BME280;29669;55.706;37.656;2023-02-19T13:24:26;98038.69;;;-1.68;nan
43814;BME280;29669;55.706;37.656;2023-02-19T13:35:26;98037.88;;;-1.99;nan
43814;BME280;29669;55.706;37.656;2023-02-19T13:38:02;98040.13;;;-2.05;nan
43814;BME280;29669;55.706;37.656;2023-02-19T13:43:05;98034.91;;;-2.04;nan
43814;BME280;29669;55.706;37.656;2023-02-19T13:45:42;98034.91;;;-2.04;nan
43814;BME280;29669;55.706;37.656;2023-02-19T13:48:32;98038.28;;;-2.03;nan
43814;BME280;29669;55.706;37.656;2023-02-19T14:05:05;98028.56;;;-2.39;nan
43814;BME280;29669;55.706;37.656;2023-02-19T14:10:55;98017.31;;;-2.46;nan
43814;BME280;29669;55.706;37.656;2023-02-19T14:16:54;98007.16;;;-2.46;nan
43814;BME280;29669;55.706;37.656;2023-02-19T14:30:58;98018.78;;;-2.64;nan
43814;BME280;29669;55.706;37.656;2023-02-19T14:33:33;98018.22;;;-2.68;nan
43814;BME280;29669;55.706;37.656;2023-02-19T14:36:10;98013.41;;;-2.71;nan
43814;BME280;29669;55.706;37.656;2023-02-19T14:38:50;98015.44;;;-2.65;nan
43814;BME280;29669;55.706;37.656;2023-02-19T14:41:21;98009.78;;;-2.68;nan
43814;BME280;29669;55.706;37.656;2023-02-19T14:43:54;97991.94;;;-2.78;nan
43814;BME280;29669;55.706;37.656;2023-02-19T14:46:45;97993.59;;;-2.77;nan
43814;BME280;29669;55.706;37.656;2023-02-19T14:51:54;98006.88;;;-2.84;nan
43814;BME280;29669;55.706;37.656;2023-02-19T14:57:01;98005.66;;;-2.90;nan
43814;BME280;29669;55.706;37.656;2023-02-19T14:59:31;97995.38;;;-2.89;nan
43814;BME280;29669;55.706;37.656;2023-02-19T15:02:12;97999.88;;;-2.92;nan
43814;BME280;29669;55.706;37.656;2023-02-19T15:04:41;97999.31;;;-2.96;nan
43814;BME280;29669;55.706;37.656;2023-02-19T15:07:12;97994.59;;;-3.00;nan
43814;BME280;29669;55.706;37.656;2023-02-19T15:09:47;98003.59;;;-2.96;nan
43814;BME280;29669;55.706;37.656;2023-02-19T15:12:20;97991.38;;;-3.02;nan
43814;BME280;29669;55.706;37.656;2023-02-19T15:14:52;97998.09;;;-3.01;nan
43814;BME280;29669;55.706;37.656;2023-02-19T15:17:26;97986.34;;;-3.13;nan
43814;BME280;29669;55.706;37.656;2023-02-19T15:19:58;97993.16;;;-3.14;nan
43814;BME280;29669;55.706;37.656;2023-02-19T15:22:29;97985.47;;;-3.23;nan
43814;BME280;29669;55.706;37.656;2023-02-19T15:25:02;98001.50;;;-3.23;nan
43814;BME280;29669;55.706;37.656;2023-02-19T15:27:30;97992.50;;;-3.27;nan
43814;BME280;29669;55.706;37.656;2023-02-19T15:30:01;97981.94;;;-3.32;nan
43814;BME280;29669;55.706;37.656;2023-02-19T15:32:30;97994.91;;;-3.25;nan
43814;BME280;29669;55.706;37.656;2023-02-19T15:35:02;97978.91;;;-3.26;nan
43814;BME280;29669;55.706;37.656;2023-02-19T15:37:32;97986.00;;;-3.20;nan
43814;BME280;29669;55.706;37.656;2023-02-19T15:40:05;97986.84;;;-3.19;nan
43814;BME280;29669;55.706;37.656;2023-02-19T15:42:35;97986.59;;;-3.16;nan
43814;BME280;29669;55.706;37.656;2023-02-19T15:45:28;97979.09;;;-3.18;nan
43814;BME280;29669;55.706;37.656;2023-02-19T15:50:36;97974.41;;;-3.22;nan
43814;BME280;29669;55.706;37.656;2023-02-19T15:53:18;97976.56;;;-3.18;nan